createdAt,value
2017-06-05T00:00:03.320Z,97.60
2017-06-05T00:02:42.627Z,97.70
2017-06-05T00:05:23.989Z,97.60
2017-06-05T00:08:03.854Z,97.70
2017-06-05T00:10:32.476Z,98.00
2017-06-05T00:13:08.537Z,97.70
2017-06-05T00:15:44.298Z,97.50
2017-06-05T00:18:12.927Z,97.40
2017-06-05T00:20:49.379Z,97.30
2017-06-05T00:23:25.478Z,97.60
2017-06-05T00:25:57.573Z,97.70
2017-06-05T00:28:26.205Z,97.60
2017-06-05T00:30:55.061Z,97.70
2017-06-05T00:33:36.252Z,97.60
2017-06-05T00:36:12.040Z,97.60
2017-06-05T00:38:40.681Z,97.90
2017-06-05T00:41:17.095Z,97.80
2017-06-05T00:43:54.155Z,97.20
2017-06-05T00:46:30.101Z,97.00
2017-06-05T00:51:45.877Z,96.50
2017-06-05T00:54:18.430Z,96.50
2017-06-05T00:56:50.408Z,96.40
2017-06-05T00:59:22.241Z,96.80
2017-06-05T01:01:50.899Z,97.10
2017-06-05T01:04:27.343Z,97.00
2017-06-05T01:07:03.454Z,97.30
2017-06-05T01:09:42.460Z,97.10
2017-06-05T01:12:18.490Z,97.00
2017-06-05T01:14:49.085Z,97.30
2017-06-05T01:17:17.714Z,97.50
2017-06-05T01:19:54.278Z,97.30
2017-06-05T01:22:36.878Z,97.60
2017-06-05T01:25:05.387Z,97.70
2017-06-05T01:27:33.824Z,98.00
2017-06-05T01:30:11.982Z,97.90
2017-06-05T01:32:47.723Z,97.50
2017-06-05T01:35:27.116Z,97.10
2017-06-05T01:38:03.042Z,96.80
2017-06-05T01:40:44.387Z,97.20
2017-06-05T01:43:20.031Z,97.70
2017-06-05T01:45:56.081Z,97.80
2017-06-05T01:48:41.438Z,97.60
2017-06-05T01:51:18.012Z,98.00
2017-06-05T01:53:53.983Z,98.00
2017-06-05T01:56:31.937Z,97.40
2017-06-05T01:59:00.419Z,97.50
2017-06-05T02:01:38.928Z,97.10
2017-06-05T02:04:16.006Z,97.10
2017-06-05T02:06:51.915Z,97.40
2017-06-05T02:09:28.038Z,97.10
2017-06-05T02:15:19.326Z,97.00
2017-06-05T02:17:58.698Z,96.90
2017-06-05T02:20:27.228Z,97.40
2017-06-05T02:22:56.517Z,96.80
2017-06-05T02:25:28.857Z,96.80
2017-06-05T02:28:04.950Z,97.00
2017-06-05T02:30:34.401Z,97.30
2017-06-05T02:33:17.245Z,97.20
2017-06-05T02:35:56.047Z,97.20
2017-06-05T02:38:31.858Z,97.10
2017-06-05T02:41:04.550Z,97.10
2017-06-05T02:43:46.239Z,97.20
2017-06-05T02:46:22.007Z,97.00
2017-06-05T02:49:03.675Z,97.90
2017-06-05T02:51:36.004Z,97.10
2017-06-05T02:54:04.494Z,97.10
2017-06-05T02:56:40.332Z,97.00
2017-06-05T02:59:12.930Z,97.10
2017-06-05T03:01:54.375Z,97.00
2017-06-05T03:04:36.138Z,96.90
2017-06-05T03:07:12.025Z,96.20
2017-06-05T03:09:48.041Z,96.10
2017-06-05T03:15:19.353Z,96.70
2017-06-05T03:17:48.694Z,96.30
2017-06-05T03:20:24.520Z,96.40
2017-06-05T03:23:00.212Z,96.80
2017-06-05T03:25:36.672Z,96.20
2017-06-05T03:28:12.990Z,96.30
2017-06-05T03:30:54.165Z,96.30
2017-06-05T03:33:34.300Z,96.60
2017-06-05T03:36:03.002Z,96.40
2017-06-05T03:38:38.694Z,96.40
2017-06-05T03:41:15.944Z,96.70
2017-06-05T03:43:44.378Z,96.50
2017-06-05T03:46:13.169Z,96.80
2017-06-05T03:48:55.475Z,96.70
2017-06-05T03:51:32.384Z,97.10
2017-06-05T03:54:01.889Z,96.80
2017-06-05T03:56:45.616Z,96.80
2017-06-05T03:59:27.078Z,96.00
2017-06-05T04:02:10.023Z,96.40
2017-06-05T04:04:38.601Z,96.40
2017-06-05T04:07:08.452Z,96.50
2017-06-05T04:09:44.407Z,96.40
2017-06-05T04:12:26.101Z,96.40
2017-06-05T04:14:58.298Z,96.20
2017-06-05T04:17:34.250Z,96.60
2017-06-05T04:20:02.911Z,97.00
2017-06-05T04:22:43.036Z,97.50
2017-06-05T04:25:18.500Z,97.20
2017-06-05T04:27:53.926Z,97.20
2017-06-05T04:30:29.775Z,97.60
2017-06-05T04:32:59.928Z,97.40
2017-06-05T04:35:36.725Z,97.40
2017-06-05T04:38:17.926Z,97.40
2017-06-05T04:40:50.446Z,97.00
2017-06-05T04:43:26.965Z,96.80
2017-06-05T04:46:02.699Z,96.30
2017-06-05T04:48:40.163Z,96.20
2017-06-05T04:51:15.992Z,95.90
2017-06-05T04:53:52.182Z,95.50
2017-06-05T04:56:23.992Z,96.10
2017-06-05T04:59:01.866Z,96.60
2017-06-05T05:04:13.642Z,96.60
2017-06-05T05:06:49.667Z,96.70
2017-06-05T05:09:25.981Z,96.60
2017-06-05T05:12:01.757Z,96.60
2017-06-05T05:14:39.370Z,96.50
2017-06-05T05:17:15.624Z,96.60
2017-06-05T05:19:44.228Z,96.80
2017-06-05T05:22:21.984Z,96.30
2017-06-05T05:25:01.326Z,96.60
2017-06-05T05:27:42.217Z,96.20
2017-06-05T05:30:19.909Z,95.70
2017-06-05T05:32:56.303Z,95.20
2017-06-05T05:35:32.729Z,95.40
2017-06-05T05:38:08.939Z,94.50
2017-06-05T05:40:41.111Z,94.60
2017-06-05T05:43:23.416Z,94.90
2017-06-05T05:45:51.880Z,94.30
2017-06-05T05:48:36.177Z,93.70
2017-06-05T05:51:12.844Z,94.00
2017-06-05T05:53:48.509Z,94.80
2017-06-05T05:56:24.074Z,94.70
2017-06-05T05:59:00.048Z,94.60
2017-06-05T06:01:28.506Z,94.50
2017-06-05T06:03:57.455Z,94.50
2017-06-05T06:06:33.071Z,94.00
2017-06-05T06:09:08.958Z,93.20
2017-06-05T06:11:40.755Z,94.70
2017-06-05T06:14:10.028Z,94.90
2017-06-05T06:16:45.862Z,94.80
2017-06-05T06:19:18.569Z,94.50
2017-06-05T06:21:47.040Z,94.10
2017-06-05T06:24:15.531Z,94.00
2017-06-05T06:26:51.549Z,94.40
2017-06-05T06:29:23.634Z,93.00
2017-06-05T06:31:53.248Z,92.60
2017-06-05T06:34:25.538Z,91.70
2017-06-05T06:37:01.533Z,91.50
2017-06-05T06:42:10.040Z,91.90
2017-06-05T06:44:49.096Z,89.20
2017-06-05T06:47:24.904Z,86.50
2017-06-05T06:49:56.848Z,82.70
2017-06-05T06:52:43.667Z,82.40
2017-06-05T06:55:19.940Z,85.70
2017-06-05T06:57:55.952Z,84.60
2017-06-05T07:00:28.487Z,88.80
2017-06-05T07:03:05.257Z,88.00
2017-06-05T07:05:44.580Z,89.00
2017-06-05T07:08:22.910Z,90.60
2017-06-05T07:10:51.354Z,90.50
2017-06-05T07:13:24.179Z,89.10
2017-06-05T07:16:00.149Z,89.10
2017-06-05T07:18:28.696Z,88.00
2017-06-05T07:21:04.216Z,88.60
2017-06-05T07:23:41.498Z,89.10
2017-06-05T07:26:24.641Z,90.10
2017-06-05T07:29:00.706Z,89.60
2017-06-05T07:31:29.255Z,89.70
2017-06-05T07:33:58.180Z,90.60
2017-06-05T07:36:27.738Z,91.70
2017-06-05T07:39:08.764Z,91.70
2017-06-05T07:41:37.129Z,92.10
2017-06-05T07:44:09.093Z,91.80
2017-06-05T07:46:37.648Z,91.40
2017-06-05T07:49:14.058Z,91.20
2017-06-05T07:51:42.608Z,91.80
2017-06-05T07:54:15.118Z,91.90
2017-06-05T07:56:48.192Z,91.60
2017-06-05T07:59:25.257Z,91.50
2017-06-05T08:02:01.227Z,90.10
2017-06-05T08:04:37.274Z,90.60
2017-06-05T08:07:13.029Z,91.30
2017-06-05T08:09:49.344Z,91.40
2017-06-05T08:12:26.674Z,90.60
2017-06-05T08:14:55.151Z,90.70
2017-06-05T08:17:30.591Z,88.70
2017-06-05T08:20:06.568Z,89.10
2017-06-05T08:22:43.683Z,88.20
2017-06-05T08:25:26.675Z,87.80
2017-06-05T08:28:07.972Z,88.60
2017-06-05T08:30:37.331Z,87.70
2017-06-05T08:33:05.821Z,86.50
2017-06-05T08:35:34.321Z,84.70
2017-06-05T08:38:10.424Z,86.70
2017-06-05T08:40:38.942Z,85.90
2017-06-05T08:43:11.345Z,86.70
2017-06-05T08:45:47.212Z,84.50
2017-06-05T08:48:23.265Z,86.00
2017-06-05T08:50:55.421Z,85.40
2017-06-05T08:53:23.914Z,85.80
2017-06-05T08:56:16.636Z,86.40
2017-06-05T09:09:47.253Z,85.90
2017-06-05T09:12:16.213Z,76.10
2017-06-05T09:14:52.170Z,75.90
2017-06-05T09:17:22.463Z,74.40
2017-06-05T09:19:50.920Z,70.60
2017-06-05T09:22:27.696Z,72.00
2017-06-05T09:24:57.677Z,70.80
2017-06-05T09:27:29.790Z,70.90
2017-06-05T09:30:05.230Z,71.30
2017-06-05T09:35:15.203Z,71.10
2017-06-05T09:37:43.654Z,71.90
2017-06-05T09:40:19.045Z,70.00
2017-06-05T09:42:54.956Z,69.10
2017-06-05T09:45:30.732Z,69.70
2017-06-05T09:48:07.320Z,67.60
2017-06-05T09:50:43.081Z,67.00
2017-06-05T09:53:19.182Z,69.70
2017-06-05T09:55:55.287Z,66.90
2017-06-05T09:58:23.751Z,65.70
2017-06-05T10:00:55.887Z,63.00
2017-06-05T10:03:31.893Z,66.40
2017-06-05T10:06:08.893Z,65.80
2017-06-05T10:08:37.474Z,63.90
2017-06-05T10:11:12.851Z,57.40
2017-06-05T10:13:48.819Z,59.70
2017-06-05T10:16:17.289Z,59.90
2017-06-05T10:18:53.166Z,63.00
2017-06-05T10:21:23.028Z,61.10
2017-06-05T10:23:56.016Z,61.30
2017-06-05T10:26:31.952Z,61.30
2017-06-05T10:29:00.368Z,60.40
2017-06-05T10:31:28.883Z,59.50
2017-06-05T10:33:57.305Z,60.70
2017-06-05T10:36:25.790Z,59.00
2017-06-05T10:39:01.942Z,59.80
2017-06-05T10:41:38.056Z,58.80
2017-06-05T10:44:17.344Z,57.40
2017-06-05T10:46:53.089Z,57.80
2017-06-05T10:49:21.852Z,57.30
2017-06-05T10:51:57.684Z,55.70
2017-06-05T10:54:33.453Z,56.40
2017-06-05T10:57:01.959Z,55.50
2017-06-05T10:59:37.530Z,55.10
2017-06-05T11:02:14.767Z,54.60
2017-06-05T11:04:50.218Z,55.40
2017-06-05T11:07:22.492Z,55.40
2017-06-05T11:09:58.535Z,55.00
2017-06-05T11:12:39.651Z,52.90
2017-06-05T11:15:08.476Z,54.40
2017-06-05T11:17:49.345Z,53.10
2017-06-05T11:20:18.013Z,54.50
2017-06-05T11:22:46.492Z,55.50
2017-06-05T11:25:14.947Z,53.00
2017-06-05T11:27:51.216Z,52.40
2017-06-05T11:30:27.630Z,52.70
2017-06-05T11:33:10.796Z,52.90
2017-06-05T11:35:39.600Z,52.50
2017-06-05T11:38:19.402Z,50.80
2017-06-05T11:40:56.029Z,50.80
2017-06-05T11:43:31.974Z,53.00
2017-06-05T11:46:01.167Z,51.10
2017-06-05T11:48:38.804Z,50.90
2017-06-05T11:51:21.408Z,53.50
2017-06-05T11:53:49.895Z,51.70
2017-06-05T11:56:18.395Z,52.00
2017-06-05T11:58:50.566Z,50.90
2017-06-05T12:01:27.052Z,53.30
2017-06-05T12:04:03.567Z,52.50
2017-06-05T12:06:35.424Z,52.20
2017-06-05T12:09:07.357Z,51.60
2017-06-05T12:11:36.651Z,52.50
2017-06-05T12:14:12.451Z,52.20
2017-06-05T12:16:44.483Z,50.70
2017-06-05T12:19:24.429Z,51.10
2017-06-05T12:21:59.959Z,51.10
2017-06-05T12:24:35.855Z,49.60
2017-06-05T12:27:19.178Z,49.10
2017-06-05T12:30:00.751Z,48.30
2017-06-05T12:32:39.043Z,48.90
2017-06-05T12:35:13.450Z,47.80
2017-06-05T12:40:29.661Z,49.10
2017-06-05T12:42:58.107Z,49.20
2017-06-05T12:45:26.499Z,48.70
2017-06-05T12:48:02.287Z,49.90
2017-06-05T12:53:21.383Z,48.90
2017-06-05T12:55:56.895Z,49.80
2017-06-05T12:58:55.707Z,47.90
2017-06-05T13:01:24.958Z,49.90
2017-06-05T13:03:55.106Z,49.80
2017-06-05T13:06:23.517Z,50.60
2017-06-05T13:08:52.722Z,48.30
2017-06-05T13:11:32.717Z,48.30
2017-06-05T13:17:35.517Z,50.90
2017-06-05T13:20:03.991Z,49.10
2017-06-05T13:22:40.194Z,49.70
2017-06-05T13:25:17.097Z,49.00
2017-06-05T13:27:45.538Z,49.30
2017-06-05T13:30:21.812Z,50.20
2017-06-05T13:32:50.967Z,50.40
2017-06-05T13:35:50.229Z,50.30
2017-06-05T13:38:22.540Z,50.30
2017-06-05T13:41:17.772Z,49.60
2017-06-05T13:43:46.195Z,50.60
2017-06-05T13:46:22.096Z,50.30
2017-06-05T13:48:50.566Z,50.50
2017-06-05T13:51:31.793Z,50.20
2017-06-05T13:54:04.259Z,48.80
2017-06-05T13:56:40.362Z,48.60
2017-06-05T13:59:08.819Z,47.70
2017-06-05T14:01:37.271Z,49.10
2017-06-05T14:04:06.428Z,49.10
2017-06-05T14:06:34.985Z,48.50
2017-06-05T14:09:03.287Z,49.10
2017-06-05T14:11:31.693Z,49.40
2017-06-05T14:14:17.679Z,48.70
2017-06-05T14:16:46.110Z,48.90
2017-06-05T14:19:14.458Z,49.40
2017-06-05T14:21:49.924Z,48.00
2017-06-05T14:24:18.353Z,50.00
2017-06-05T14:26:55.213Z,52.20
2017-06-05T14:29:23.690Z,50.70
2017-06-05T14:31:52.175Z,51.60
2017-06-05T14:34:20.621Z,52.60
2017-06-05T14:36:56.959Z,52.40
2017-06-05T14:39:33.661Z,51.00
2017-06-05T14:42:09.565Z,50.90
2017-06-05T14:44:45.374Z,52.10
2017-06-05T14:47:26.823Z,49.80
2017-06-05T14:49:58.387Z,48.60
2017-06-05T14:52:37.817Z,49.10
2017-06-05T14:55:06.412Z,50.80
2017-06-05T14:57:34.850Z,49.10
2017-06-05T15:00:11.124Z,50.80
2017-06-05T15:02:47.307Z,50.60
2017-06-05T15:05:15.860Z,50.40
2017-06-05T15:07:52.418Z,50.80
2017-06-05T15:10:28.750Z,50.00
2017-06-05T15:13:00.887Z,50.50
2017-06-05T15:18:20.817Z,50.20
2017-06-05T15:20:49.277Z,49.60
2017-06-05T15:23:19.671Z,49.40
2017-06-05T15:26:18.927Z,50.10
2017-06-05T15:28:50.738Z,51.30
2017-06-05T15:31:33.439Z,50.50
2017-06-05T15:34:03.061Z,50.40
2017-06-05T15:39:19.968Z,48.40
2017-06-05T15:44:38.728Z,50.50
2017-06-05T15:47:09.508Z,48.70
2017-06-05T15:49:46.223Z,49.50
2017-06-05T15:52:23.144Z,47.70
2017-06-05T15:54:58.776Z,49.30
2017-06-05T15:57:39.228Z,49.30
2017-06-05T16:00:15.837Z,48.90
2017-06-05T16:02:53.225Z,48.30
2017-06-05T16:05:33.431Z,47.80
2017-06-05T16:08:38.175Z,49.50
2017-06-05T16:11:27.585Z,49.20
2017-06-05T16:14:10.928Z,49.10
2017-06-05T16:16:48.040Z,49.80
2017-06-05T16:19:36.637Z,48.60
2017-06-05T16:28:46.209Z,49.00
2017-06-05T16:31:15.814Z,49.10
2017-06-05T16:33:59.361Z,49.00
2017-06-05T16:40:14.300Z,50.60
2017-06-05T16:43:10.070Z,49.10
2017-06-05T16:52:32.836Z,50.40
2017-06-05T16:58:20.329Z,50.70
2017-06-05T17:11:27.041Z,50.60
2017-06-05T17:14:05.406Z,50.50
2017-06-05T17:16:55.588Z,52.40
2017-06-05T17:29:10.717Z,53.00
2017-06-05T17:31:47.327Z,54.30
2017-06-05T17:34:50.177Z,54.20
2017-06-05T17:37:39.375Z,54.10
2017-06-05T17:43:26.757Z,54.30
2017-06-05T17:46:25.343Z,55.60
2017-06-05T17:52:30.186Z,55.00
2017-06-05T17:54:59.159Z,56.40
2017-06-05T17:57:27.700Z,58.20
2017-06-05T18:00:04.087Z,56.00
2017-06-05T18:02:40.319Z,55.90
2017-06-05T18:05:22.800Z,56.20
2017-06-05T18:07:59.408Z,57.40
2017-06-05T18:10:36.290Z,57.00
2017-06-05T18:13:12.528Z,56.50
2017-06-05T18:15:51.288Z,57.60
2017-06-05T18:18:28.309Z,58.80
2017-06-05T18:21:10.182Z,59.40
2017-06-05T18:23:46.218Z,60.10
2017-06-05T18:26:27.894Z,60.70
2017-06-05T18:29:09.808Z,61.00
2017-06-05T18:31:46.708Z,61.20
2017-06-05T18:34:30.360Z,61.50
2017-06-05T18:37:07.428Z,61.30
2017-06-05T18:39:43.782Z,63.10
2017-06-05T18:49:28.304Z,63.60
2017-06-05T18:52:45.684Z,65.80
2017-06-05T18:55:35.199Z,66.50
2017-06-05T19:01:59.424Z,66.40
2017-06-05T19:04:44.698Z,66.30
2017-06-05T19:20:49.035Z,69.80
2017-06-05T19:23:28.450Z,68.20
